Estación Meteorológica Peña el Pijo (Robertgarden) [ 06/22/17 18:34:37 CEST ]

Fecha Hora Presion(HPa) Temp (°C) Humedad % Rocio (°C) Viento ( m/s) Direccion Lluvia 1Hora(mm) Lluvia 24H(mm) LLuvia Total(mm)
2017-May-03 01:01:40 1009.600 8.2 76 4.2         1390.83
2017-May-03 02:01:46 1009.600 7.6 78 4.0         1390.83
2017-May-03 03:02:16 1009.100 7.2 80 4.0         1390.83
2017-May-03 04:01:42 1008.600 6.6 82 3.7         1390.83
2017-May-03 05:01:42 1008.600 6.0 83 3.3         1390.83
2017-May-03 06:01:44 1008.000 6.1 83 3.4         1390.83
2017-May-03 07:01:49 1007.800 5.4 84 2.9         1390.83
2017-May-03 08:01:51 1008.200 6.1 87 4.1         1390.83
2017-May-03 09:01:48 1008.000 11.8 85 9.3         1390.83
2017-May-03 10:02:01 1007.800 17.6 60 9.7         1390.83
2017-May-03 11:01:52 1007.600 22.8 40 8.5         1390.83
2017-May-03 12:01:50 1007.600 24.5 29 5.3 4.4 SSW     1390.83
2017-May-03 13:01:39 1007.200 24.9 28 5.0         1390.83
2017-May-03 14:02:04 1006.600 25.1 28 5.2         1390.83
2017-May-03 15:01:42 1006.200 25.9 27 5.3         1390.83
2017-May-03 16:01:34 1005.900 25.2 28 5.3 1.7 S     1390.83
2017-May-03 17:01:42 1005.100 25.9 27 5.3         1390.83
2017-May-03 18:01:49 1005.000 24.8 29 5.5         1390.83
2017-May-03 19:01:42 1005.100 23.1 31 5.0         1390.83
2017-May-03 20:01:42 1005.300 20.9 36 5.2         1390.83
2017-May-03 21:01:43 1005.800 17.8 43 5.0         1390.83
2017-May-03 22:01:46 1006.500 15.3 51 5.2         1390.83
2017-May-03 23:01:43 1007.100 12.5 59 4.7         1390.83

Temperatura Máxima:25°    Temperatura Mínima:
Presión Máxima:1009.600 Hpa    Presión Mínima:1005.000 Hpa


Volver